Time;durP1;ratioP1;P1;durP2;ratioP2;P2;SDS_P1;SDS_P2;PMS_P1;PMS_P2;Temp;Humidity;BMP_temperature;BMP_pressure;BME280_temperature;BME280_humidity;BME280_pressure;Samples;Min_cycle;Max_cycle;Signal;HPM_P1;HPM_P2
2024/01/14 00:01:57;;;;;;;113.88;59.60;;;38.70;2201.60;;;;;;5070963;28;20025;-75
2024/01/14 00:04:24;;;;;;;61.30;30.90;;;38.90;2201.60;;;;;;5086629;28;20538;-74
2024/01/14 00:06:50;;;;;;;173.35;96.90;;;38.80;2201.60;;;;;;5091070;28;20020;-74
2024/01/14 00:09:16;;;;;;;196.75;112.57;;;38.80;2201.60;;;;;;5077061;28;20539;-75
2024/01/14 00:11:43;;;;;;;152.90;84.20;;;38.80;2201.60;;;;;;5091048;28;20378;-75
2024/01/14 00:14:09;;;;;;;106.85;61.47;;;38.70;2201.60;;;;;;5077185;28;20355;-73
2024/01/14 00:16:35;;;;;;;76.97;41.63;;;38.60;2201.60;;;;;;5090694;28;20073;-75
2024/01/14 00:19:02;;;;;;;93.07;47.40;;;38.60;2201.60;;;;;;5090677;28;20020;-73
2024/01/14 00:21:28;;;;;;;85.85;46.90;;;38.50;2201.60;;;;;;5090720;28;20031;-75
2024/01/14 00:23:54;;;;;;;67.93;36.13;;;38.60;2201.60;;;;;;5086504;28;20044;-75
2024/01/14 00:26:21;;;;;;;91.43;49.05;;;38.60;2201.60;;;;;;5086001;28;20036;-75
2024/01/14 00:28:47;;;;;;;102.13;50.83;;;38.70;2201.60;;;;;;5086778;28;20024;-75
2024/01/14 00:31:13;;;;;;;245.23;103.47;;;38.50;2201.60;;;;;;5089285;28;20035;-76
2024/01/14 00:33:40;;;;;;;125.90;62.53;;;38.60;2201.60;;;;;;5087002;28;20028;-75
2024/01/14 00:36:07;;;;;;;78.40;42.30;;;38.90;2201.60;;;;;;5070207;28;20024;-74
2024/01/14 00:38:33;;;;;;;52.10;30.13;;;38.90;2201.60;;;;;;5070107;28;20029;-75
2024/01/14 00:40:59;;;;;;;157.25;86.72;;;39.10;2201.60;;;;;;5070404;28;20493;-75
2024/01/14 00:43:24;;;;;;;209.27;105.03;;;39.10;2201.60;;;;;;5069802;28;20029;-73
2024/01/14 00:45:50;;;;;;;77.13;40.10;;;39.00;2201.60;;;;;;5070284;28;20020;-73
2024/01/14 00:48:16;;;;;;;97.95;47.47;;;38.90;2201.60;;;;;;5073494;28;20106;-73
2024/01/14 00:50:42;;;;;;;84.75;42.63;;;38.70;2201.60;;;;;;5079607;28;20063;-73
2024/01/14 00:53:07;;;;;;;38.15;18.80;;;38.80;2201.60;;;;;;5086996;28;20020;-73
2024/01/14 00:55:33;;;;;;;126.25;58.83;;;38.80;2201.60;;;;;;5090208;28;20072;-75
2024/01/14 00:57:59;;;;;;;54.13;25.58;;;38.80;2201.60;;;;;;5086778;28;20028;-75
2024/01/14 01:00:24;;;;;;;96.38;48.38;;;38.80;2201.60;;;;;;5079149;28;20028;-73
2024/01/14 01:02:50;;;;;;;22.35;11.63;;;38.80;2201.60;;;;;;5089548;28;20052;-73
2024/01/14 01:05:16;;;;;;;14.20;8.15;;;38.90;2201.60;;;;;;5089892;28;20098;-73
2024/01/14 01:07:42;;;;;;;17.85;8.98;;;38.80;2201.60;;;;;;5072542;28;20027;-73
2024/01/14 01:10:09;;;;;;;30.27;16.40;;;38.70;2201.60;;;;;;5079803;28;20024;-73
2024/01/14 01:12:35;;;;;;;55.15;29.80;;;38.60;2201.60;;;;;;5089571;28;20013;-74
2024/01/14 01:15:00;;;;;;;21.13;14.43;;;38.60;2201.60;;;;;;5089952;28;20028;-73
2024/01/14 01:17:26;;;;;;;31.77;16.83;;;38.70;2201.60;;;;;;5075715;28;20179;-73
2024/01/14 01:19:52;;;;;;;23.52;12.27;;;38.80;2201.60;;;;;;5089625;28;20146;-73
2024/01/14 01:22:18;;;;;;;23.55;13.98;;;38.80;2201.60;;;;;;5089212;28;20051;-73
2024/01/14 01:24:44;;;;;;;160.20;78.47;;;38.90;2201.60;;;;;;5078901;28;20055;-73
2024/01/14 01:27:10;;;;;;;86.82;42.60;;;38.90;2201.60;;;;;;5086470;28;20489;-73
2024/01/14 01:29:36;;;;;;;95.85;49.85;;;38.90;2201.60;;;;;;5089398;28;20153;-72
2024/01/14 01:32:02;;;;;;;70.68;37.13;;;39.00;2201.60;;;;;;5084704;28;20127;-71
2024/01/14 01:34:28;;;;;;;110.38;52.97;;;39.00;2201.60;;;;;;5068585;28;20623;-74
2024/01/14 01:36:54;;;;;;;111.85;50.25;;;39.10;2201.60;;;;;;5082622;28;20032;-74
2024/01/14 01:39:20;;;;;;;46.33;21.98;;;38.90;2201.60;;;;;;5069211;28;20165;-74
2024/01/14 01:41:46;;;;;;;33.58;18.25;;;38.90;2201.60;;;;;;5072188;28;20040;-74
2024/01/14 01:44:11;;;;;;;20.83;12.27;;;38.80;2201.60;;;;;;5089261;28;20067;-74
2024/01/14 01:46:37;;;;;;;54.70;26.58;;;38.70;2201.60;;;;;;5087590;28;20031;-72
2024/01/14 01:49:04;;;;;;;107.93;51.80;;;38.70;2201.60;;;;;;5088979;28;20190;-74
2024/01/14 01:51:30;;;;;;;147.30;67.45;;;38.90;2201.60;;;;;;5089034;28;20020;-73
2024/01/14 01:53:57;;;;;;;36.03;16.35;;;39.00;2201.60;;;;;;5078638;28;20056;-73
2024/01/14 01:56:24;;;;;;;94.30;42.10;;;38.90;2201.60;;;;;;5068955;28;20078;-73
2024/01/14 01:58:51;;;;;;;43.60;23.05;;;38.90;2201.60;;;;;;5079623;28;20554;-73
2024/01/14 02:01:17;;;;;;;685.78;379.38;;;38.70;2201.60;;;;;;5084551;28;20399;-73
2024/01/14 02:03:43;;;;;;;64.10;31.98;;;38.60;2201.60;;;;;;5068648;28;20094;-73
2024/01/14 02:06:11;;;;;;;115.82;52.92;;;38.70;2201.60;;;;;;5081110;28;20039;-73
2024/01/14 02:08:37;;;;;;;319.10;140.82;;;38.80;2201.60;;;;;;5068677;28;20530;-74
2024/01/14 02:11:03;;;;;;;209.63;86.18;;;38.70;2201.60;;;;;;5086696;28;20462;-74
2024/01/14 02:13:28;;;;;;;144.50;65.10;;;38.70;2201.60;;;;;;5089200;28;20050;-73
2024/01/14 02:15:54;;;;;;;137.43;55.72;;;38.60;2201.60;;;;;;5088673;28;20044;-73
2024/01/14 02:18:20;;;;;;;143.80;61.80;;;38.50;2201.60;;;;;;5088855;28;20426;-74
2024/01/14 02:20:46;;;;;;;83.97;36.03;;;38.60;2201.60;;;;;;5088565;28;20066;-73
2024/01/14 02:23:19;;;;;;;85.40;40.67;;;38.60;2201.60;;;;;;5088996;28;20492;-73
2024/01/14 02:25:45;;;;;;;146.77;73.45;;;38.70;2201.60;;;;;;5088546;28;20020;-73
2024/01/14 02:28:11;;;;;;;24.50;15.35;;;38.70;2201.60;;;;;;5088977;28;20024;-73
2024/01/14 02:30:36;;;;;;;25.30;11.68;;;38.80;2201.60;;;;;;5088618;28;20039;-73
2024/01/14 02:33:02;;;;;;;17.38;10.68;;;38.70;2201.60;;;;;;5088496;28;20028;-74
2024/01/14 02:35:28;;;;;;;26.75;13.15;;;38.60;2201.60;;;;;;5088495;28;20028;-73
2024/01/14 02:37:55;;;;;;;20.85;11.77;;;38.80;2201.60;;;;;;5088725;28;20081;-73
2024/01/14 02:40:21;;;;;;;39.83;22.05;;;38.80;2201.60;;;;;;5088459;28;20039;-73
2024/01/14 02:42:47;;;;;;;15.77;8.05;;;38.70;2201.60;;;;;;5088600;28;20039;-73
2024/01/14 02:45:13;;;;;;;73.55;44.20;;;38.60;2201.60;;;;;;5089521;28;20488;-73
2024/01/14 02:47:38;;;;;;;53.15;32.53;;;38.50;2201.60;;;;;;5092474;28;20027;-73
2024/01/14 02:50:04;;;;;;;25.83;16.38;;;38.40;2201.60;;;;;;5073716;28;20049;-73
2024/01/14 02:52:30;;;;;;;22.95;11.20;;;13.70;2201.60;;;;;;5072473;28;20024;-73
2024/01/14 02:54:56;;;;;;;10.75;6.82;;;13.60;2201.60;;;;;;5084313;28;20021;-73
2024/01/14 02:57:22;;;;;;;17.08;10.20;;;13.40;2201.60;;;;;;5084222;28;20111;-72
2024/01/14 02:59:47;;;;;;;14.98;8.85;;;13.40;2201.60;;;;;;5092175;28;20047;-74
2024/01/14 03:02:13;;;;;;;12.35;7.25;;;13.40;2201.60;;;;;;5092050;28;20422;-73
2024/01/14 03:04:39;;;;;;;15.55;7.53;;;13.30;2201.60;;;;;;5092130;28;20389;-73
2024/01/14 03:07:05;;;;;;;17.55;11.05;;;13.30;2201.60;;;;;;5092150;28;20047;-73
2024/01/14 03:09:30;;;;;;;14.02;7.90;;;13.50;2201.60;;;;;;5086745;28;20028;-73
2024/01/14 03:11:56;;;;;;;15.10;9.95;;;38.40;2201.60;;;;;;5084090;28;20028;-77
2024/01/14 03:14:22;;;;;;;17.88;13.65;;;13.70;2201.60;;;;;;5092000;28;20020;-74
2024/01/14 03:16:48;;;;;;;11.88;6.00;;;13.60;2201.60;;;;;;5079757;28;20147;-73
2024/01/14 03:19:13;;;;;;;15.73;10.32;;;13.50;2201.60;;;;;;5071665;28;20466;-74
2024/01/14 03:21:39;;;;;;;11.60;5.85;;;13.40;2201.60;;;;;;5071882;28;20420;-73
2024/01/14 03:24:05;;;;;;;10.98;7.68;;;13.40;2201.60;;;;;;5077023;28;20454;-73
2024/01/14 03:26:31;;;;;;;12.98;8.52;;;13.40;2201.60;;;;;;5091851;28;20032;-73
2024/01/14 03:28:56;;;;;;;15.13;9.98;;;13.50;2201.60;;;;;;5091547;28;20384;-73
2024/01/14 03:31:23;;;;;;;12.50;7.93;;;38.40;2201.60;;;;;;5091683;28;20031;-72
2024/01/14 03:33:48;;;;;;;11.00;6.43;;;38.50;2201.60;;;;;;5091312;28;20028;-73
2024/01/14 03:36:14;;;;;;;14.32;7.35;;;38.60;2201.60;;;;;;5091585;28;20024;-73
2024/01/14 03:38:41;;;;;;;9.80;5.15;;;38.50;2201.60;;;;;;5087322;28;20024;-73
2024/01/14 03:41:06;;;;;;;7.93;4.65;;;38.50;2201.60;;;;;;5082212;28;20024;-73
2024/01/14 03:43:32;;;;;;;7.97;5.15;;;38.40;2201.60;;;;;;5087282;28;20437;-74
2024/01/14 03:45:58;;;;;;;16.95;9.27;;;13.70;2201.60;;;;;;5071291;28;20025;-73
2024/01/14 03:48:24;;;;;;;17.10;10.60;;;13.70;2201.60;;;;;;5088579;28;20043;-74
2024/01/14 03:50:49;;;;;;;9.73;5.63;;;13.60;2201.60;;;;;;5091455;28;20020;-73
2024/01/14 03:53:15;;;;;;;8.15;3.88;;;13.50;2201.60;;;;;;5091231;28;20034;-73
2024/01/14 03:55:41;;;;;;;7.15;3.95;;;13.20;2201.60;;;;;;5090963;28;20024;-73
2024/01/14 03:58:06;;;;;;;5.68;3.33;;;13.10;2201.60;;;;;;5077382;28;20028;-73
2024/01/14 04:00:32;;;;;;;8.75;4.60;;;13.10;2201.60;;;;;;5091327;28;20100;-73
2024/01/14 04:02:58;;;;;;;10.35;4.90;;;13.20;2201.60;;;;;;5090543;28;20155;-73
2024/01/14 04:05:24;;;;;;;8.90;5.60;;;13.40;2201.60;;;;;;5090943;28;20029;-73
2024/01/14 04:07:49;;;;;;;14.32;5.82;;;13.20;2201.60;;;;;;5077454;28;20020;-73
2024/01/14 04:10:16;;;;;;;9.70;5.45;;;13.30;2201.60;;;;;;5080325;28;20032;-73
2024/01/14 04:12:42;;;;;;;10.60;5.47;;;13.50;2201.60;;;;;;5070716;28;20103;-73
2024/01/14 04:15:09;;;;;;;10.85;5.07;;;13.70;2201.60;;;;;;5070682;28;20057;-73
2024/01/14 04:17:34;;;;;;;7.68;3.75;;;38.40;2201.60;;;;;;5074370;28;20019;-73
2024/01/14 04:20:01;;;;;;;9.13;3.75;;;13.70;2201.60;;;;;;5080256;28;20348;-72
2024/01/14 04:22:27;;;;;;;8.38;4.35;;;13.70;2201.60;;;;;;5083960;28;20028;-73
2024/01/14 04:24:52;;;;;;;8.55;4.80;;;38.50;2201.60;;;;;;5081185;28;20024;-73
2024/01/14 04:27:18;;;;;;;7.53;3.95;;;38.50;2201.60;;;;;;5090410;28;20023;-74
2024/01/14 04:29:44;;;;;;;7.07;3.65;;;38.60;2201.60;;;;;;5090480;28;20028;-74
2024/01/14 04:32:10;;;;;;;9.98;6.00;;;13.40;2201.60;;;;;;5090303;28;20032;-73
2024/01/14 04:34:36;;;;;;;9.27;4.97;;;13.40;2201.60;;;;;;5090405;28;20024;-73
2024/01/14 04:37:02;;;;;;;6.65;4.05;;;13.50;2201.60;;;;;;5085902;28;20025;-73
2024/01/14 04:39:28;;;;;;;8.10;4.38;;;13.30;2201.60;;;;;;5070312;28;20527;-73
2024/01/14 04:41:54;;;;;;;8.15;4.18;;;13.30;2201.60;;;;;;5086846;28;20069;-73
2024/01/14 04:44:20;;;;;;;30.23;15.88;;;13.20;2201.60;;;;;;5088944;28;20847;-73
2024/01/14 04:46:46;;;;;;;10.02;6.45;;;13.10;2201.60;;;;;;5088669;28;20115;-72
2024/01/14 04:49:12;;;;;;;5.82;3.95;;;13.10;2201.60;;;;;;5077230;28;20040;-73
2024/01/14 04:51:38;;;;;;;7.63;5.68;;;13.10;2201.60;;;;;;5088051;28;20059;-73
2024/01/14 04:54:04;;;;;;;5.90;3.38;;;13.00;2201.60;;;;;;5090479;28;20454;-73
2024/01/14 04:56:30;;;;;;;14.38;10.30;;;0.10;2201.60;;;;;;5090407;28;20020;-73
2024/01/14 04:58:56;;;;;;;12.57;7.40;;;0.10;2201.60;;;;;;5089935;28;20059;-74
2024/01/14 05:01:22;;;;;;;26.55;14.13;;;0.10;2201.60;;;;;;5089960;28;20070;-73
2024/01/14 05:03:48;;;;;;;23.83;12.10;;;0.10;2201.60;;;;;;5089377;28;20063;-73
2024/01/14 05:06:14;;;;;;;25.20;13.13;;;0.00;2201.60;;;;;;5084684;28;20024;-73
2024/01/14 05:08:42;;;;;;;17.30;8.68;;;13.00;2201.60;;;;;;5081199;28;20031;-73
2024/01/14 05:11:09;;;;;;;12.88;6.75;;;13.10;2201.60;;;;;;5083925;28;20020;-74
2024/01/14 05:13:35;;;;;;;10.80;5.38;;;13.20;2201.60;;;;;;5069510;28;20032;-74
2024/01/14 05:16:01;;;;;;;8.73;4.40;;;13.20;2201.60;;;;;;5089254;28;20462;-73
2024/01/14 05:18:28;;;;;;;12.95;7.80;;;13.10;2201.60;;;;;;5089449;28;20016;-73
2024/01/14 05:20:53;;;;;;;10.90;5.07;;;13.10;2201.60;;;;;;5070005;28;20099;-73
2024/01/14 05:23:21;;;;;;;11.90;6.10;;;13.10;2201.60;;;;;;5069497;28;20166;-73
2024/01/14 05:25:46;;;;;;;11.32;5.25;;;13.10;2201.60;;;;;;5082511;28;20012;-73
2024/01/14 05:28:12;;;;;;;10.50;5.25;;;13.00;2201.60;;;;;;5081177;28;20028;-74
2024/01/14 05:30:38;;;;;;;9.20;4.55;;;13.10;2201.60;;;;;;5089022;28;20043;-75
2024/01/14 05:33:04;;;;;;;8.45;5.07;;;13.20;2201.60;;;;;;5077481;28;20497;-73
2024/01/14 05:35:30;;;;;;;9.63;5.63;;;13.20;2201.60;;;;;;5087942;28;20055;-73
2024/01/14 05:37:56;;;;;;;9.32;5.00;;;13.30;2201.60;;;;;;5088080;28;20055;-72
2024/01/14 05:40:23;;;;;;;13.82;7.15;;;13.20;2201.60;;;;;;5083986;28;20465;-76
2024/01/14 05:42:48;;;;;;;17.50;10.38;;;13.30;2201.60;;;;;;5068996;28;20039;-73
2024/01/14 05:45:14;;;;;;;12.75;6.45;;;13.50;2201.60;;;;;;5069034;28;20099;-72
2024/01/14 05:47:40;;;;;;;69.57;41.13;;;13.60;2201.60;;;;;;5081024;28;20051;-74
2024/01/14 05:50:09;;;;;;;10.60;5.72;;;13.70;2201.60;;;;;;5089070;28;20035;-73
2024/01/14 05:52:35;;;;;;;25.45;12.88;;;13.50;2201.60;;;;;;5089159;28;20107;-73
2024/01/14 05:55:00;;;;;;;25.40;13.48;;;13.30;2201.60;;;;;;5089266;28;20462;-73
2024/01/14 05:57:26;;;;;;;25.40;14.82;;;13.20;2201.60;;;;;;5089052;28;20111;-73
2024/01/14 05:59:52;;;;;;;14.80;8.23;;;13.20;2201.60;;;;;;5069384;28;20103;-72
2024/01/14 06:02:18;;;;;;;12.90;6.63;;;13.20;2201.60;;;;;;5081128;28;20036;-73
2024/01/14 06:04:44;;;;;;;9.57;6.68;;;13.20;2201.60;;;;;;5088837;28;20028;-73
2024/01/14 06:07:09;;;;;;;10.23;5.82;;;13.20;2201.60;;;;;;5089248;28;20476;-73
2024/01/14 06:09:35;;;;;;;30.67;17.08;;;13.20;2201.60;;;;;;5088748;28;20016;-73
2024/01/14 06:12:01;;;;;;;21.20;11.98;;;13.30;2201.60;;;;;;5089222;28;20013;-72
2024/01/14 06:14:27;;;;;;;20.42;12.18;;;13.50;2201.60;;;;;;5088686;28;20438;-77
2024/01/14 06:16:53;;;;;;;15.02;9.02;;;13.50;2201.60;;;;;;5089155;28;20495;-73
2024/01/14 06:19:19;;;;;;;13.05;7.68;;;13.40;2201.60;;;;;;5090075;28;20470;-75
2024/01/14 06:21:45;;;;;;;12.85;8.38;;;13.50;2201.60;;;;;;5093133;28;20027;-72
2024/01/14 06:24:13;;;;;;;89.25;47.30;;;13.50;2201.60;;;;;;5086759;28;20036;-74
2024/01/14 06:26:39;;;;;;;100.82;59.35;;;13.40;2201.60;;;;;;5086444;28;20103;-74
2024/01/14 06:29:05;;;;;;;130.27;66.22;;;13.40;2201.60;;;;;;5079177;28;20103;-74
2024/01/14 06:31:31;;;;;;;136.27;80.00;;;13.50;2201.60;;;;;;5080473;28;20040;-76
2024/01/14 06:33:56;;;;;;;107.13;59.58;;;13.50;2201.60;;;;;;5091580;28;20036;-75
2024/01/14 06:36:22;;;;;;;149.25;94.35;;;13.30;2201.60;;;;;;5093386;28;20034;-74
2024/01/14 06:38:48;;;;;;;75.07;43.60;;;13.20;2201.60;;;;;;5091116;28;20056;-74
2024/01/14 06:41:20;;;;;;;85.30;45.97;;;13.60;2201.60;;;;;;5092683;28;20035;-74
2024/01/14 06:43:46;;;;;;;85.38;52.55;;;13.70;2201.60;;;;;;5092598;28;20427;-73
2024/01/14 06:46:13;;;;;;;94.43;55.80;;;38.40;2201.60;;;;;;5092784;28;20032;-75
2024/01/14 06:48:38;;;;;;;248.23;151.57;;;13.50;2201.60;;;;;;5092274;28;20069;-73
2024/01/14 06:51:04;;;;;;;272.52;155.50;;;13.30;2201.60;;;;;;5092279;28;20028;-75
2024/01/14 06:53:30;;;;;;;161.68;88.63;;;13.20;2201.60;;;;;;5085533;28;20115;-74
2024/01/14 06:55:56;;;;;;;81.90;46.65;;;13.10;2201.60;;;;;;5072132;28;20021;-75
2024/01/14 06:58:22;;;;;;;70.70;40.05;;;13.00;2201.60;;;;;;5079690;28;20035;-74
2024/01/14 07:00:47;;;;;;;40.08;19.50;;;12.90;2201.60;;;;;;5090002;28;20532;-75
2024/01/14 07:03:14;;;;;;;26.63;13.88;;;0.00;2201.60;;;;;;5078581;28;20052;-74
2024/01/14 07:05:39;;;;;;;37.55;23.52;;;0.40;2201.60;;;;;;5092216;28;20025;-75
2024/01/14 07:08:05;;;;;;;147.30;82.03;;;0.40;2201.60;;;;;;5092227;28;20031;-74
2024/01/14 07:10:32;;;;;;;162.15;84.75;;;0.60;2201.60;;;;;;5092189;28;20088;-75
2024/01/14 07:12:57;;;;;;;69.22;37.42;;;0.60;2201.60;;;;;;5090864;28;20501;-74
2024/01/14 07:15:23;;;;;;;31.98;18.27;;;0.80;2201.60;;;;;;5091933;28;20016;-74
2024/01/14 07:17:49;;;;;;;40.42;22.83;;;0.80;2201.60;;;;;;5090639;28;20038;-74
2024/01/14 07:20:15;;;;;;;143.70;79.32;;;25.60;2201.60;;;;;;5078196;28;20031;-74
2024/01/14 07:22:42;;;;;;;126.75;69.90;;;25.70;2201.60;;;;;;5092006;28;20051;-74
2024/01/14 07:25:08;;;;;;;68.43;38.35;;;25.80;2201.60;;;;;;5082718;28;20025;-74
2024/01/14 07:27:35;;;;;;;29.55;17.45;;;25.90;2201.60;;;;;;5091735;28;20366;-74
2024/01/14 07:30:01;;;;;;;77.00;46.83;;;25.90;2201.60;;;;;;5091881;28;20027;-74
2024/01/14 07:32:27;;;;;;;133.65;80.28;;;26.10;2201.60;;;;;;5084046;28;20024;-73
2024/01/14 07:34:53;;;;;;;70.20;40.88;;;26.30;2201.60;;;;;;5084802;28;20039;-72
2024/01/14 07:37:18;;;;;;;25.08;13.98;;;26.40;2201.60;;;;;;5091500;28;20080;-73
2024/01/14 07:39:46;;;;;;;22.67;15.93;;;26.30;2201.60;;;;;;5091498;28;20062;-73
2024/01/14 07:42:12;;;;;;;28.83;19.42;;;51.20;2227.20;;;;;;5091339;28;20382;-74
2024/01/14 07:44:38;;;;;;;18.15;9.05;;;51.20;2227.20;;;;;;5085195;28;20040;-73
2024/01/14 07:47:04;;;;;;;13.98;8.05;;;26.50;2201.60;;;;;;5082425;28;20103;-73
2024/01/14 07:49:30;;;;;;;19.15;10.52;;;51.40;2227.20;;;;;;5084816;28;20608;-75
2024/01/14 07:51:55;;;;;;;19.27;10.45;;;51.60;2227.20;;;;;;5091265;28;20024;-76
2024/01/14 07:54:21;;;;;;;39.13;31.20;;;51.70;2227.20;;;;;;5090979;28;20060;-75
2024/01/14 07:56:47;;;;;;;61.47;41.33;;;51.80;2227.20;;;;;;5091147;28;20508;-75
2024/01/14 07:59:13;;;;;;;54.78;38.55;;;51.90;2227.20;;;;;;5082884;28;20485;-76
2024/01/14 08:01:38;;;;;;;52.03;34.58;;;52.00;2227.20;;;;;;5085841;28;20025;-76
2024/01/14 08:04:04;;;;;;;59.25;43.65;;;52.00;2227.20;;;;;;5090792;28;20043;-74
2024/01/14 08:06:30;;;;;;;42.67;29.77;;;52.10;2227.20;;;;;;5077636;28;20060;-76
2024/01/14 08:08:56;;;;;;;122.07;92.80;;;52.10;2227.20;;;;;;5085060;28;20091;-73
2024/01/14 08:11:22;;;;;;;53.30;36.17;;;76.90;2227.20;;;;;;5086040;28;20028;-73
2024/01/14 08:13:48;;;;;;;56.45;42.13;;;77.20;2227.20;;;;;;5079387;28;20035;-73
2024/01/14 08:16:14;;;;;;;56.63;37.75;;;77.20;2227.20;;;;;;5079106;28;20025;-75
2024/01/14 08:18:41;;;;;;;35.90;24.05;;;77.20;2227.20;;;;;;5084055;28;20505;-74
2024/01/14 08:21:09;;;;;;;24.42;19.45;;;77.40;2227.20;;;;;;5070594;28;20106;-73
2024/01/14 08:23:35;;;;;;;31.65;24.27;;;77.60;2227.20;;;;;;5075787;28;20385;-74
2024/01/14 08:26:02;;;;;;;30.58;23.85;;;102.90;2227.20;;;;;;5076192;28;20035;-75
2024/01/14 08:28:28;;;;;;;36.47;26.52;;;128.70;2252.80;;;;;;5084517;28;20527;-73
2024/01/14 08:30:54;;;;;;;23.38;17.95;;;128.20;2252.80;;;;;;5087649;28;20108;-74
2024/01/14 08:33:20;;;;;;;39.78;31.67;;;103.20;2227.20;;;;;;5073782;28;20430;-73
2024/01/14 08:35:46;;;;;;;49.08;43.08;;;102.90;2227.20;;;;;;5080198;28;20407;-74
2024/01/14 08:38:11;;;;;;;61.70;46.83;;;102.70;2227.20;;;;;;5090610;28;20470;-77
2024/01/14 08:40:37;;;;;;;55.60;38.65;;;77.60;2227.20;;;;;;5089220;28;20032;-79
2024/01/14 08:43:03;;;;;;;29.35;22.25;;;77.30;2227.20;;;;;;5086598;28;20127;-78
2024/01/14 08:45:29;;;;;;;23.15;15.48;;;77.30;2227.20;;;;;;5069011;28;20414;-81
2024/01/14 08:47:54;;;;;;;21.42;13.25;;;77.00;2227.20;;;;;;5084585;28;20103;-80
2024/01/14 08:50:20;;;;;;;25.92;16.55;;;77.10;2227.20;;;;;;5086370;28;20032;-79
2024/01/14 08:52:46;;;;;;;75.40;40.75;;;77.30;2227.20;;;;;;5068882;28;20036;-79
2024/01/14 08:55:13;;;;;;;31.95;20.30;;;77.70;2227.20;;;;;;5082128;28;20035;-79
2024/01/14 08:57:39;;;;;;;78.50;48.83;;;103.30;2227.20;;;;;;5090204;28;20450;-81
2024/01/14 09:00:06;;;;;;;91.55;60.63;;;154.30;2252.80;;;;;;5090273;28;20035;-81
2024/01/14 09:02:32;;;;;;;38.50;28.95;;;180.00;2150.40;;;;;;5080994;28;20134;-81
2024/01/14 09:04:58;;;;;;;30.85;22.42;;;205.30;2099.20;;;;;;5075134;28;20111;-82
2024/01/14 09:07:25;;;;;;;19.90;15.73;;;230.80;1971.20;;;;;;5080323;28;20051;-82
2024/01/14 09:09:50;;;;;;;15.10;10.35;;;205.60;2048.00;;;;;;5088859;28;20024;-81
2024/01/14 09:12:16;;;;;;;37.35;22.88;;;179.80;2099.20;;;;;;5073467;28;20361;-81
2024/01/14 09:14:42;;;;;;;36.25;27.60;;;179.20;2176.00;;;;;;5078228;28;20483;-79
2024/01/14 09:17:08;;;;;;;48.53;33.72;;;154.40;2201.60;;;;;;5074813;28;20099;-78
2024/01/14 09:19:34;;;;;;;53.45;39.10;;;154.50;2176.00;;;;;;5072712;28;20033;-77
2024/01/14 09:22:00;;;;;;;66.32;40.17;;;154.50;2201.60;;;;;;5084839;28;20036;-77
2024/01/14 09:24:26;;;;;;;58.50;38.95;;;179.20;2176.00;;;;;;5085982;28;20043;-77
2024/01/14 09:26:52;;;;;;;70.70;45.92;;;179.30;2176.00;;;;;;5083748;28;20450;-76
2024/01/14 09:29:17;;;;;;;62.65;42.30;;;179.40;2176.00;;;;;;5088195;28;20032;-76
2024/01/14 09:31:43;;;;;;;56.58;44.35;;;179.30;2150.40;;;;;;5079368;28;20038;-78
2024/01/14 09:34:09;;;;;;;56.30;48.85;;;179.50;2150.40;;;;;;5075892;28;20052;-77
2024/01/14 09:36:36;;;;;;;62.75;52.65;;;179.80;2150.40;;;;;;5079488;28;20033;-80
2024/01/14 09:39:02;;;;;;;34.97;30.85;;;180.00;2099.20;;;;;;5082361;28;20025;-80
2024/01/14 09:41:57;;;;;;;27.98;21.23;;;180.00;2150.40;;;;;;5072150;28;20036;-79
2024/01/14 09:44:23;;;;;;;26.65;20.88;;;179.40;2176.00;;;;;;5081937;28;20040;-77
2024/01/14 09:46:50;;;;;;;40.53;26.63;;;179.50;2227.20;;;;;;5077659;28;20494;-79
2024/01/14 09:49:19;;;;;;;533.83;410.85;;;179.40;2252.80;;;;;;5070389;28;20032;-78
2024/01/14 09:51:47;;;;;;;510.05;384.63;;;154.10;2252.80;;;;;;5080132;28;20020;-76
2024/01/14 09:54:13;;;;;;;420.85;299.08;;;128.70;2252.80;;;;;;5073356;28;20040;-77
2024/01/14 09:56:42;;;;;;;414.02;297.48;;;103.10;2227.20;;;;;;5078715;28;20031;-78
2024/01/14 09:59:09;;;;;;;391.48;273.23;;;102.70;2227.20;;;;;;5075511;28;20036;-77
2024/01/14 10:01:36;;;;;;;297.00;205.18;;;102.70;2227.20;;;;;;5075181;28;20032;-78
2024/01/14 10:04:03;;;;;;;288.73;193.23;;;103.00;2227.20;;;;;;5078884;28;20045;-78
2024/01/14 10:06:31;;;;;;;295.73;209.98;;;103.10;2227.20;;;;;;5071636;28;20052;-76
2024/01/14 10:08:58;;;;;;;388.60;268.42;;;103.20;2227.20;;;;;;5071645;28;20074;-78
2024/01/14 10:11:24;;;;;;;415.88;290.23;;;103.00;2227.20;;;;;;5078833;28;20086;-78
2024/01/14 10:13:50;;;;;;;419.75;288.92;;;102.90;2227.20;;;;;;5071428;28;20020;-76
2024/01/14 10:16:17;;;;;;;418.80;287.73;;;103.30;2227.20;;;;;;5074779;28;20081;-77
2024/01/14 10:18:43;;;;;;;407.98;290.60;;;128.10;2252.80;;;;;;5078685;28;20056;-77
2024/01/14 10:21:11;;;;;;;436.13;312.50;;;128.50;2252.80;;;;;;5074402;28;20432;-77
2024/01/14 10:23:39;;;;;;;396.08;274.83;;;128.70;2252.80;;;;;;5074707;28;20120;-77
2024/01/14 10:26:06;;;;;;;452.15;313.88;;;128.80;2252.80;;;;;;5080030;28;20035;-78
2024/01/14 10:28:36;;;;;;;434.13;306.55;;;128.60;2252.80;;;;;;5071485;28;20086;-77
2024/01/14 10:31:03;;;;;;;485.00;344.55;;;103.10;2227.20;;;;;;5079772;28;20024;-78
2024/01/14 10:33:34;;;;;;;486.98;343.75;;;102.70;2227.20;;;;;;5075463;28;20036;-76
2024/01/14 10:36:00;;;;;;;370.88;260.35;;;102.80;2227.20;;;;;;5074405;28;20459;-77
2024/01/14 10:38:26;;;;;;;303.38;215.77;;;102.40;2227.20;;;;;;5067789;28;20078;-79
2024/01/14 10:40:53;;;;;;;312.50;211.80;;;77.70;2227.20;;;;;;5080800;28;20024;-77
2024/01/14 10:43:23;;;;;;;320.48;220.90;;;77.70;2227.20;;;;;;5077695;28;20035;-78
2024/01/14 10:45:50;;;;;;;336.13;222.48;;;77.60;2227.20;;;;;;5073599;28;20382;-79
2024/01/14 10:48:21;;;;;;;384.20;244.13;;;77.40;2227.20;;;;;;5081867;28;20047;-78
2024/01/14 10:50:52;;;;;;;308.95;196.63;;;77.70;2227.20;;;;;;5077172;28;20032;-78
2024/01/14 10:53:23;;;;;;;343.90;228.05;;;102.70;2227.20;;;;;;5077916;28;20043;-78
2024/01/14 10:55:56;;;;;;;370.33;235.52;;;102.90;2227.20;;;;;;5077218;28;20029;-80
2024/01/14 10:58:29;;;;;;;439.17;296.98;;;103.10;2227.20;;;;;;5079669;28;20126;-78
2024/01/14 11:01:00;;;;;;;206.18;133.85;;;103.20;2227.20;;;;;;5068347;28;20387;-79
2024/01/14 11:03:29;;;;;;;333.20;216.73;;;103.30;2227.20;;;;;;5073801;28;20063;-79
2024/01/14 11:05:55;;;;;;;349.33;232.88;;;128.10;2252.80;;;;;;5075699;28;20036;-79
2024/01/14 11:08:21;;;;;;;198.55;117.55;;;128.40;2252.80;;;;;;5072798;28;20028;-78
2024/01/14 11:10:52;;;;;;;280.40;179.00;;;128.40;2252.80;;;;;;5079057;28;20358;-76
2024/01/14 11:13:35;;;;;;;259.10;159.38;;;128.60;2252.80;;;;;;5082504;28;20089;-78
2024/01/14 11:16:09;;;;;;;214.73;130.38;;;128.70;2252.80;;;;;;5072249;28;20051;-79
2024/01/14 11:18:43;;;;;;;241.57;156.70;;;153.60;2252.80;;;;;;5082377;28;20036;-75
2024/01/14 11:21:27;;;;;;;166.80;107.55;;;128.80;2252.80;;;;;;5076313;28;20555;-78
2024/01/14 11:23:55;;;;;;;288.20;185.05;;;153.60;2252.80;;;;;;5079741;28;20068;-77
2024/01/14 11:26:24;;;;;;;182.52;110.60;;;128.90;2252.80;;;;;;5071307;28;20040;-78
2024/01/14 11:28:51;;;;;;;352.55;210.85;;;153.60;2252.80;;;;;;5073053;28;20046;-77
2024/01/14 11:31:17;;;;;;;257.70;153.27;;;153.70;2252.80;;;;;;5070251;28;20037;-79
2024/01/14 11:33:46;;;;;;;149.35;89.70;;;153.70;2252.80;;;;;;5080861;28;20032;-80
2024/01/14 11:36:13;;;;;;;94.30;59.88;;;153.80;2252.80;;;;;;5079552;28;20117;-77
2024/01/14 11:38:44;;;;;;;166.23;102.07;;;153.80;2227.20;;;;;;5074448;28;20109;-80
2024/01/14 11:41:35;;;;;;;195.15;123.90;;;154.00;2227.20;;;;;;5079044;28;20045;-79
2024/01/14 11:44:13;;;;;;;224.13;133.95;;;154.30;2227.20;;;;;;5077721;28;20043;-76
2024/01/14 11:46:46;;;;;;;105.10;70.97;;;154.10;2227.20;;;;;;5072810;28;20139;-79
2024/01/14 11:49:23;;;;;;;232.68;146.80;;;154.10;2227.20;;;;;;5081234;28;20047;-79
2024/01/14 11:51:57;;;;;;;251.25;152.35;;;153.90;2252.80;;;;;;5072306;28;20082;-80
2024/01/14 11:54:24;;;;;;;139.98;94.32;;;153.90;2252.80;;;;;;5074000;28;20044;-79
2024/01/14 11:56:50;;;;;;;179.13;119.63;;;153.90;2201.60;;;;;;5075570;28;20544;-78
2024/01/14 11:59:17;;;;;;;293.75;202.07;;;154.10;2227.20;;;;;;5079184;28;20058;-79
2024/01/14 12:01:43;;;;;;;448.92;283.17;;;153.60;2252.80;;;;;;5072934;28;20017;-77